Time;durP1;ratioP1;P1;durP2;ratioP2;P2;SDS_P1;SDS_P2;PMS_P1;PMS_P2;Temp;Humidity;BMP_temperature;BMP_pressure;BME280_temperature;BME280_humidity;BME280_pressure;Samples;Min_cycle;Max_cycle;Signal;HPM_P1;HPM_P2
2021/09/06 00:01:30;;;;;;;;;;;;;;;20.98;41.07;102006.31;4983333;28;96929;-74
2021/09/06 00:03:58;;;;;;;;;;;;;;;20.76;41.17;102013.91;4974076;28;98864;-73
2021/09/06 00:06:25;;;;;;;;;;;;;;;20.75;41.38;101995.19;4972620;28;99172;-73
2021/09/06 00:08:51;;;;;;;;;;;;;;;20.58;41.82;101998.84;4973752;28;96716;-73
2021/09/06 00:11:17;;;;;;;;;;;;;;;20.40;42.38;102002.59;4970380;28;96858;-73
2021/09/06 00:13:44;;;;;;;;;;;;;;;20.62;41.71;102003.94;4971401;28;98955;-73
2021/09/06 00:16:10;;;;;;;;;;;;;;;20.50;41.99;101996.59;4971955;28;98879;-73
2021/09/06 00:18:36;;;;;;;;;;;;;;;20.72;41.40;101992.69;4971029;28;98637;-73
2021/09/06 00:21:06;;;;;;;;;;;;;;;20.70;41.52;101990.09;4972748;28;96968;-74
2021/09/06 00:23:33;;;;;;;;;;;;;;;20.76;41.47;101991.53;4973134;28;100196;-74
2021/09/06 00:26:02;;;;;;;;;;;;;;;20.68;41.79;101994.66;4971993;28;98865;-74
2021/09/06 00:28:28;;;;;;;;;;;;;;;20.46;42.21;101997.75;4968339;28;96848;-73
2021/09/06 00:30:55;;;;;;;;;;;;;;;20.39;42.47;101990.13;4972368;28;96833;-74
2021/09/06 00:33:21;;;;;;;;;;;;;;;20.37;42.67;101995.56;4972150;28;98963;-74
2021/09/06 00:35:48;;;;;;;;;;;;;;;20.50;42.22;101988.53;4973280;28;99253;-73
2021/09/06 00:38:17;;;;;;;;;;;;;;;20.46;42.09;102000.44;4974462;28;96779;-73
2021/09/06 00:40:43;;;;;;;;;;;;;;;20.41;42.33;101990.91;4958377;28;96874;-74
2021/09/06 00:43:09;;;;;;;;;;;;;;;20.32;42.39;101996.75;4967413;28;98859;-72
2021/09/06 00:45:37;;;;;;;;;;;;;;;20.31;42.45;101987.84;4974686;28;99094;-73
2021/09/06 00:48:03;;;;;;;;;;;;;;;20.36;42.30;101995.66;4975967;28;97022;-73
2021/09/06 00:50:29;;;;;;;;;;;;;;;20.44;42.21;101998.78;4961858;28;96956;-73
2021/09/06 00:52:56;;;;;;;;;;;;;;;20.40;42.37;101990.03;4975574;28;99341;-73
2021/09/06 00:55:24;;;;;;;;;;;;;;;20.12;42.61;101996.06;4971169;28;98779;-73
2021/09/06 00:57:51;;;;;;;;;;;;;;;20.16;42.77;101986.88;4959700;28;96663;-73
2021/09/06 01:00:18;;;;;;;;;;;;;;;20.34;42.40;101985.03;4969140;28;96882;-73
2021/09/06 01:02:45;;;;;;;;;;;;;;;20.27;42.50;101987.16;4973370;28;98872;-73
2021/09/06 01:05:12;;;;;;;;;;;;;;;19.93;43.03;101992.66;4976150;28;98859;-73
2021/09/06 01:07:38;;;;;;;;;;;;;;;20.02;43.32;101986.75;4975466;28;96789;-73
2021/09/06 01:10:06;;;;;;;;;;;;;;;19.75;43.76;101991.00;4978223;28;98900;-73
2021/09/06 01:12:34;;;;;;;;;;;;;;;19.42;44.54;101986.44;4975810;28;99050;-73
2021/09/06 01:15:00;;;;;;;;;;;;;;;19.92;43.96;101990.06;4976687;28;98788;-73
2021/09/06 01:17:26;;;;;;;;;;;;;;;19.41;44.71;101987.38;4964624;28;97072;-73
2021/09/06 01:19:52;;;;;;;;;;;;;;;19.92;43.42;101990.91;4974788;28;96828;-73
2021/09/06 01:22:19;;;;;;;;;;;;;;;19.91;43.74;101986.50;4970635;28;98798;-73
2021/09/06 01:24:45;;;;;;;;;;;;;;;20.06;43.17;101995.53;4975549;28;98875;-74
2021/09/06 01:27:13;;;;;;;;;;;;;;;20.06;43.01;101993.72;4975031;28;96896;-73
2021/09/06 01:29:39;;;;;;;;;;;;;;;19.87;43.47;101996.56;4975288;28;96903;-74
2021/09/06 01:32:06;;;;;;;;;;;;;;;19.82;43.79;101992.38;4969512;28;99589;-74
2021/09/06 01:34:32;;;;;;;;;;;;;;;20.00;43.11;101988.69;4972428;28;99130;-73
2021/09/06 01:36:59;;;;;;;;;;;;;;;19.70;44.30;101996.56;4972286;28;97292;-72
2021/09/06 01:39:25;;;;;;;;;;;;;;;19.79;43.89;101987.19;4974427;28;97175;-72
2021/09/06 01:41:51;;;;;;;;;;;;;;;19.72;44.50;101989.31;4971197;28;99508;-74
2021/09/06 01:44:19;;;;;;;;;;;;;;;19.91;43.76;101991.88;4972802;28;99072;-74
2021/09/06 01:46:45;;;;;;;;;;;;;;;19.95;43.40;101993.44;4973163;28;96870;-72
2021/09/06 01:49:12;;;;;;;;;;;;;;;19.85;43.67;101993.06;4973388;28;96988;-74
2021/09/06 01:51:38;;;;;;;;;;;;;;;19.92;43.81;101990.91;4976069;28;101199;-74
2021/09/06 01:54:04;;;;;;;;;;;;;;;19.95;43.60;101982.72;4975256;28;98786;-74
2021/09/06 01:56:31;;;;;;;;;;;;;;;19.90;44.04;101984.75;4972069;28;98652;-73
2021/09/06 01:58:57;;;;;;;;;;;;;;;19.67;44.23;101983.34;4975393;28;98595;-73
2021/09/06 02:01:25;;;;;;;;;;;;;;;19.74;44.40;101981.19;4971156;28;99238;-73
2021/09/06 02:03:52;;;;;;;;;;;;;;;19.75;44.03;101983.81;4975928;28;100392;-74
2021/09/06 02:06:18;;;;;;;;;;;;;;;19.84;44.09;101987.78;4975511;28;98847;-74
2021/09/06 02:08:44;;;;;;;;;;;;;;;19.88;44.15;101982.19;4974470;28;97823;-74
2021/09/06 02:11:10;;;;;;;;;;;;;;;19.82;43.56;101987.88;4975697;28;99982;-74
2021/09/06 02:13:37;;;;;;;;;;;;;;;19.89;43.72;101988.38;4973559;28;98818;-73
2021/09/06 02:16:03;;;;;;;;;;;;;;;19.79;43.68;101992.53;4967968;28;96980;-73
2021/09/06 02:18:31;;;;;;;;;;;;;;;19.77;44.35;101997.09;4974758;28;96826;-74
2021/09/06 02:20:57;;;;;;;;;;;;;;;19.72;44.77;101993.81;4972893;28;99791;-74
2021/09/06 02:23:24;;;;;;;;;;;;;;;19.64;44.76;101993.34;4971359;28;99073;-73
2021/09/06 02:25:50;;;;;;;;;;;;;;;19.68;44.54;101995.81;4975263;28;96796;-73
2021/09/06 02:28:16;;;;;;;;;;;;;;;19.70;44.48;101996.56;4975071;28;96913;-73
2021/09/06 02:30:42;;;;;;;;;;;;;;;19.62;44.62;101993.47;4973660;28;99210;-74
2021/09/06 02:33:09;;;;;;;;;;;;;;;19.73;44.32;101998.25;4972274;28;98814;-73
2021/09/06 02:35:37;;;;;;;;;;;;;;;19.74;44.61;102005.34;4974229;28;97161;-72
2021/09/06 02:38:03;;;;;;;;;;;;;;;19.63;44.64;102008.56;4971157;28;97598;-73
2021/09/06 02:40:29;;;;;;;;;;;;;;;19.66;44.42;102007.56;4973851;28;99141;-74
2021/09/06 02:42:56;;;;;;;;;;;;;;;19.71;44.32;102003.69;4974392;28;99065;-73
2021/09/06 02:45:22;;;;;;;;;;;;;;;19.65;44.64;102005.81;4973479;28;96824;-73
2021/09/06 02:47:49;;;;;;;;;;;;;;;19.54;44.90;102005.53;4972652;28;96927;-74
2021/09/06 02:50:16;;;;;;;;;;;;;;;19.52;45.03;101994.00;4973113;28;99394;-73
2021/09/06 02:52:43;;;;;;;;;;;;;;;19.52;44.91;101999.38;4973743;28;99226;-74
2021/09/06 02:55:10;;;;;;;;;;;;;;;19.35;45.26;101992.22;4955555;28;97026;-74
2021/09/06 02:57:36;;;;;;;;;;;;;;;19.36;45.09;101993.94;4975715;28;96827;-74
2021/09/06 03:00:03;;;;;;;;;;;;;;;19.28;45.43;101997.03;4970778;28;99077;-73
2021/09/06 03:02:29;;;;;;;;;;;;;;;19.27;45.80;101984.56;4972129;28;99063;-74
2021/09/06 03:04:55;;;;;;;;;;;;;;;19.30;45.57;101979.03;4974489;28;96804;-74
2021/09/06 03:07:22;;;;;;;;;;;;;;;19.27;45.62;101984.56;4974484;28;97104;-74
2021/09/06 03:09:49;;;;;;;;;;;;;;;19.17;46.15;101988.66;4970866;28;98885;-74
2021/09/06 03:12:15;;;;;;;;;;;;;;;19.12;46.21;101985.34;4973005;28;99649;-74
2021/09/06 03:14:42;;;;;;;;;;;;;;;19.05;46.30;101990.16;4972135;28;98569;-74
2021/09/06 03:17:08;;;;;;;;;;;;;;;19.11;46.48;101983.59;4974204;28;96933;-74
2021/09/06 03:19:34;;;;;;;;;;;;;;;19.26;45.78;101984.63;4972473;28;98942;-74
2021/09/06 03:22:00;;;;;;;;;;;;;;;19.16;45.99;101986.94;4972683;28;99026;-74
2021/09/06 03:24:26;;;;;;;;;;;;;;;18.96;46.64;101981.75;4973490;28;96761;-75
2021/09/06 03:26:54;;;;;;;;;;;;;;;18.97;46.49;101980.78;4971837;28;98658;-72
2021/09/06 03:29:21;;;;;;;;;;;;;;;19.01;46.41;101980.56;4971604;28;99282;-73
2021/09/06 03:31:47;;;;;;;;;;;;;;;19.05;46.12;101981.25;4971710;28;98761;-73
2021/09/06 03:34:13;;;;;;;;;;;;;;;18.93;47.01;101977.38;4974313;28;96691;-72
2021/09/06 03:36:39;;;;;;;;;;;;;;;19.03;46.53;101975.13;4971502;28;97079;-73
2021/09/06 03:39:06;;;;;;;;;;;;;;;19.06;46.38;101974.94;4974447;28;99070;-73
2021/09/06 03:41:33;;;;;;;;;;;;;;;18.91;46.32;101981.06;4970680;28;98838;-73
2021/09/06 03:44:00;;;;;;;;;;;;;;;18.81;46.36;101977.16;4973295;28;97187;-74
2021/09/06 03:46:27;;;;;;;;;;;;;;;18.67;47.09;101972.47;4974441;28;96833;-74
2021/09/06 03:48:53;;;;;;;;;;;;;;;18.73;46.70;101966.81;4970994;28;98954;-73
2021/09/06 03:51:19;;;;;;;;;;;;;;;18.88;46.42;101966.06;4972551;28;99198;-72
2021/09/06 03:53:45;;;;;;;;;;;;;;;18.91;46.78;101967.69;4972474;28;97168;-74
2021/09/06 03:56:12;;;;;;;;;;;;;;;18.76;46.90;101966.69;4972961;28;96973;-73
2021/09/06 03:58:38;;;;;;;;;;;;;;;18.87;46.76;101966.13;4972748;28;98032;-73
2021/09/06 04:01:06;;;;;;;;;;;;;;;18.86;46.55;101967.94;4970704;28;97804;-73
2021/09/06 04:03:32;;;;;;;;;;;;;;;18.76;46.77;101971.16;4973087;28;97300;-73
2021/09/06 04:05:58;;;;;;;;;;;;;;;18.84;46.54;101967.13;4977064;28;97079;-73
2021/09/06 04:08:25;;;;;;;;;;;;;;;18.83;46.96;101969.91;4975980;28;97983;-73
2021/09/06 04:10:51;;;;;;;;;;;;;;;18.79;47.06;101971.84;4973225;28;98778;-73
2021/09/06 04:13:17;;;;;;;;;;;;;;;18.81;46.99;101969.13;4973276;28;97651;-72
2021/09/06 04:15:45;;;;;;;;;;;;;;;18.74;47.12;101968.56;4973589;28;97072;-73
2021/09/06 04:18:15;;;;;;;;;;;;;;;18.82;46.87;101974.41;4964738;28;98875;-73
2021/09/06 04:20:41;;;;;;;;;;;;;;;18.80;47.07;101970.91;4971861;28;99142;-72
2021/09/06 04:23:07;;;;;;;;;;;;;;;18.81;47.01;101978.00;4977877;28;97001;-73
2021/09/06 04:25:34;;;;;;;;;;;;;;;18.87;46.74;101974.16;4973118;28;96856;-73
2021/09/06 04:28:00;;;;;;;;;;;;;;;18.83;47.33;101972.59;4970961;28;98948;-74
2021/09/06 04:30:26;;;;;;;;;;;;;;;18.85;46.78;101971.53;4972521;28;99027;-74
2021/09/06 04:32:53;;;;;;;;;;;;;;;18.76;47.40;101976.50;4972152;28;96865;-74
2021/09/06 04:35:20;;;;;;;;;;;;;;;18.76;47.32;101971.16;4969168;28;96829;-74
2021/09/06 04:37:47;;;;;;;;;;;;;;;18.81;47.49;101972.66;4968613;28;98929;-74
2021/09/06 04:40:13;;;;;;;;;;;;;;;18.82;46.74;101970.84;4971323;28;101104;-74
2021/09/06 04:42:40;;;;;;;;;;;;;;;18.81;47.08;101974.47;4970604;28;96992;-73
2021/09/06 04:45:07;;;;;;;;;;;;;;;18.79;47.15;101979.91;4973242;28;96868;-74
2021/09/06 04:47:33;;;;;;;;;;;;;;;18.84;47.25;101980.53;4972245;28;99189;-74
2021/09/06 04:49:59;;;;;;;;;;;;;;;18.89;46.94;101988.34;4971124;28;98586;-74
2021/09/06 04:52:27;;;;;;;;;;;;;;;18.80;47.88;101989.66;4971851;28;97187;-74
2021/09/06 04:54:53;;;;;;;;;;;;;;;18.87;47.09;101995.59;4965040;28;98241;-75
2021/09/06 04:57:19;;;;;;;;;;;;;;;18.85;47.30;101989.44;4971930;28;99301;-73
2021/09/06 04:59:46;;;;;;;;;;;;;;;18.97;46.37;101989.66;4972121;28;99201;-74
2021/09/06 05:02:12;;;;;;;;;;;;;;;18.87;46.63;101995.59;4968938;28;97300;-74
2021/09/06 05:04:38;;;;;;;;;;;;;;;18.96;46.24;101989.78;4973189;28;97183;-74
2021/09/06 05:07:04;;;;;;;;;;;;;;;18.93;46.53;101989.91;4973016;28;99079;-73
2021/09/06 05:09:32;;;;;;;;;;;;;;;18.73;47.25;101987.38;4971833;28;98878;-73
2021/09/06 05:11:58;;;;;;;;;;;;;;;18.49;47.39;101989.41;4971375;28;96732;-73
2021/09/06 05:14:24;;;;;;;;;;;;;;;18.86;46.60;101991.16;4972797;28;96945;-72
2021/09/06 05:16:51;;;;;;;;;;;;;;;18.91;46.43;101997.16;4971646;28;98924;-73
2021/09/06 05:19:17;;;;;;;;;;;;;;;19.00;46.31;101992.22;4972395;28;98856;-74
2021/09/06 05:21:43;;;;;;;;;;;;;;;18.71;46.76;101999.00;4970068;28;97734;-74
2021/09/06 05:24:10;;;;;;;;;;;;;;;18.88;46.64;102006.22;4971472;28;97048;-75
2021/09/06 05:26:37;;;;;;;;;;;;;;;18.76;46.76;102003.28;4972788;28;98921;-75
2021/09/06 05:29:03;;;;;;;;;;;;;;;19.13;45.88;102007.66;4962607;28;99318;-73
2021/09/06 05:31:30;;;;;;;;;;;;;;;19.02;46.31;102011.75;4965583;28;96959;-73
2021/09/06 05:33:56;;;;;;;;;;;;;;;18.83;46.50;102008.28;4973747;28;97348;-73
2021/09/06 05:36:22;;;;;;;;;;;;;;;19.20;45.58;102009.94;4976231;28;98963;-75
2021/09/06 05:38:49;;;;;;;;;;;;;;;19.32;45.11;102014.66;4974134;28;98902;-75
2021/09/06 05:41:19;;;;;;;;;;;;;;;19.30;45.63;102021.03;4978215;28;96712;-75
2021/09/06 05:43:49;;;;;;;;;;;;;;;19.30;45.05;102026.38;4979725;28;97295;-74
2021/09/06 05:46:15;;;;;;;;;;;;;;;19.46;45.32;102024.69;4977345;28;98504;-75
2021/09/06 05:48:41;;;;;;;;;;;;;;;19.58;44.98;102024.03;4980869;28;98866;-74
2021/09/06 05:51:07;;;;;;;;;;;;;;;19.76;44.59;102031.09;4975257;28;97585;-74
2021/09/06 05:53:34;;;;;;;;;;;;;;;19.88;44.41;102040.34;4975341;28;97183;-72
2021/09/06 05:56:00;;;;;;;;;;;;;;;19.86;43.88;102031.50;4985486;28;98315;-74
2021/09/06 05:58:26;;;;;;;;;;;;;;;19.80;44.45;102030.00;4978207;28;99006;-73
2021/09/06 06:00:54;;;;;;;;;;;;;;;19.87;44.07;102033.22;4974436;28;98069;-73
2021/09/06 06:03:20;;;;;;;;;;;;;;;20.06;43.74;102028.59;4975722;28;97613;-73
2021/09/06 06:05:47;;;;;;;;;;;;;;;20.07;43.60;102034.84;4989379;28;98094;-73
2021/09/06 06:08:13;;;;;;;;;;;;;;;20.15;43.31;102033.44;4978657;28;98081;-74
2021/09/06 06:10:39;;;;;;;;;;;;;;;19.92;44.15;102028.47;4976133;28;99280;-73
2021/09/06 06:13:05;;;;;;;;;;;;;;;19.66;44.34;102029.00;4972581;28;97666;-73
2021/09/06 06:15:32;;;;;;;;;;;;;;;19.83;44.71;102037.00;4972736;28;97933;-74
2021/09/06 06:17:59;;;;;;;;;;;;;;;20.14;43.80;102037.09;4972606;28;98862;-73
2021/09/06 06:20:26;;;;;;;;;;;;;;;19.71;44.70;102026.94;4972809;28;97803;-73
2021/09/06 06:22:52;;;;;;;;;;;;;;;20.26;43.54;102031.03;4974437;28;98196;-74
2021/09/06 06:25:18;;;;;;;;;;;;;;;20.55;43.03;102031.25;4968829;28;97889;-73
2021/09/06 06:27:45;;;;;;;;;;;;;;;20.66;43.12;102036.88;4973629;28;98577;-73
2021/09/06 06:30:11;;;;;;;;;;;;;;;20.76;42.43;102024.63;4975314;28;97835;-73
2021/09/06 06:32:38;;;;;;;;;;;;;;;20.68;42.92;102026.91;4971793;28;96919;-73
2021/09/06 06:35:06;;;;;;;;;;;;;;;20.79;42.24;102027.16;4970672;28;99030;-73
2021/09/06 06:37:32;;;;;;;;;;;;;;;20.92;42.02;102025.50;4970275;28;99563;-73
2021/09/06 06:39:58;;;;;;;;;;;;;;;20.41;42.88;102028.50;4956642;28;96966;-74
2021/09/06 06:42:24;;;;;;;;;;;;;;;20.47;42.72;102028.16;4964955;28;97055;-74
2021/09/06 06:44:51;;;;;;;;;;;;;;;20.46;42.93;102029.09;4970913;28;98891;-74
2021/09/06 06:47:17;;;;;;;;;;;;;;;20.82;42.14;102032.34;4975399;28;99214;-74
2021/09/06 06:49:44;;;;;;;;;;;;;;;21.24;41.18;102036.19;4969917;28;97071;-76
2021/09/06 06:52:11;;;;;;;;;;;;;;;21.63;40.12;102039.16;4970397;28;97097;-73
2021/09/06 06:54:38;;;;;;;;;;;;;;;21.17;40.81;102041.06;4968179;28;99134;-73
2021/09/06 06:57:06;;;;;;;;;;;;;;;21.43;40.54;102039.50;4969221;28;101105;-73
2021/09/06 06:59:32;;;;;;;;;;;;;;;21.31;40.72;102046.50;4977592;28;98223;-73
2021/09/06 07:01:58;;;;;;;;;;;;;;;21.50;40.56;102043.56;4977522;28;97320;-72
2021/09/06 07:04:25;;;;;;;;;;;;;;;21.47;40.42;102047.28;4970995;28;99261;-73
2021/09/06 07:06:51;;;;;;;;;;;;;;;21.22;41.01;102048.84;4971729;28;99205;-73
2021/09/06 07:09:18;;;;;;;;;;;;;;;21.57;40.51;102052.97;4972023;28;98179;-73
2021/09/06 07:11:45;;;;;;;;;;;;;;;21.55;40.52;102057.56;4971204;28;97655;-72
2021/09/06 07:14:11;;;;;;;;;;;;;;;21.52;40.55;102057.78;4970786;28;99209;-72
2021/09/06 07:16:37;;;;;;;;;;;;;;;21.68;40.58;102058.56;4970355;28;98833;-73
2021/09/06 07:19:03;;;;;;;;;;;;;;;21.85;40.35;102054.84;4971915;28;97869;-73
2021/09/06 07:21:30;;;;;;;;;;;;;;;21.41;40.83;102061.09;4971895;28;97488;-72
2021/09/06 07:23:56;;;;;;;;;;;;;;;21.47;41.31;102068.78;4973454;28;99542;-72
2021/09/06 07:26:23;;;;;;;;;;;;;;;21.88;40.60;102057.31;4971604;28;99144;-74
2021/09/06 07:28:50;;;;;;;;;;;;;;;22.14;39.89;102058.41;4973524;28;96926;-74
2021/09/06 07:31:16;;;;;;;;;;;;;;;22.00;40.42;102067.34;4968352;28;97720;-73
2021/09/06 07:33:42;;;;;;;;;;;;;;;22.43;39.19;102062.81;4968181;28;99260;-73
2021/09/06 07:36:09;;;;;;;;;;;;;;;22.38;39.41;102059.56;4971002;28;98777;-72
2021/09/06 07:38:36;;;;;;;;;;;;;;;22.53;39.42;102058.56;4971122;28;96816;-72
2021/09/06 07:41:02;;;;;;;;;;;;;;;23.00;38.13;102057.28;4965830;28;98785;-73
2021/09/06 07:43:30;;;;;;;;;;;;;;;23.23;37.42;102050.38;4962005;28;98920;-73
2021/09/06 07:45:57;;;;;;;;;;;;;;;22.87;38.42;102051.00;4963318;28;98012;-73
2021/09/06 07:48:23;;;;;;;;;;;;;;;22.74;38.81;102050.94;4967168;28;98510;-73
2021/09/06 07:50:49;;;;;;;;;;;;;;;22.84;38.71;102046.66;4968175;28;97142;-74
2021/09/06 07:53:16;;;;;;;;;;;;;;;22.80;38.69;102052.34;4961202;28;99282;-72
2021/09/06 07:55:42;;;;;;;;;;;;;;;23.38;37.55;102057.38;4966203;28;99705;-73
2021/09/06 07:58:08;;;;;;;;;;;;;;;23.39;37.77;102051.88;4969071;28;98338;-74
2021/09/06 08:00:36;;;;;;;;;;;;;;;23.34;37.73;102059.44;4964283;28;98812;-74
2021/09/06 08:03:02;;;;;;;;;;;;;;;24.07;36.55;102061.56;4955113;28;98947;-73
2021/09/06 08:05:29;;;;;;;;;;;;;;;24.26;35.78;102062.00;4962519;28;98775;-73
2021/09/06 08:07:55;;;;;;;;;;;;;;;23.80;36.72;102065.25;4964691;28;97075;-74
2021/09/06 08:10:22;;;;;;;;;;;;;;;23.99;36.69;102063.94;4969073;28;97947;-74
2021/09/06 08:12:48;;;;;;;;;;;;;;;24.18;35.92;102067.91;4960303;28;99401;-73
2021/09/06 08:15:15;;;;;;;;;;;;;;;24.03;36.49;102065.44;4967567;28;98978;-74
2021/09/06 08:17:46;;;;;;;;;;;;;;;23.93;36.64;102062.53;4965268;28;97008;-73
2021/09/06 08:20:14;;;;;;;;;;;;;;;23.77;37.10;102062.75;4965744;28;98215;-74
2021/09/06 08:22:42;;;;;;;;;;;;;;;23.88;36.84;102061.16;4966110;28;99009;-73
2021/09/06 08:25:10;;;;;;;;;;;;;;;23.86;37.44;102065.78;4967402;28;99185;-72
2021/09/06 08:27:36;;;;;;;;;;;;;;;23.23;38.77;102058.44;4974469;28;97088;-72
2021/09/06 08:30:03;;;;;;;;;;;;;;;22.69;39.53;102068.34;4971368;28;97736;-74
2021/09/06 08:32:29;;;;;;;;;;;;;;;23.44;38.35;102055.13;4970964;28;98789;-74
2021/09/06 08:34:57;;;;;;;;;;;;;;;23.92;37.46;102068.91;4969563;28;98767;-73
2021/09/06 08:37:23;;;;;;;;;;;;;;;23.45;38.07;102069.47;4963373;28;97294;-73
2021/09/06 08:39:50;;;;;;;;;;;;;;;23.74;37.52;102068.38;4964036;28;99020;-73
2021/09/06 08:42:16;;;;;;;;;;;;;;;24.08;37.04;102074.97;4971900;28;99480;-74
2021/09/06 08:44:43;;;;;;;;;;;;;;;24.39;36.88;102076.34;4973208;28;98972;-74
2021/09/06 08:47:10;;;;;;;;;;;;;;;24.21;36.53;102078.53;4969191;28;98853;-73
2021/09/06 08:49:36;;;;;;;;;;;;;;;24.54;36.51;102080.63;4968274;28;97355;-73
2021/09/06 08:52:04;;;;;;;;;;;;;;;24.50;36.41;102075.56;4961065;28;99493;-73
2021/09/06 08:54:31;;;;;;;;;;;;;;;24.62;36.02;102080.06;4965792;28;99208;-75
2021/09/06 08:56:57;;;;;;;;;;;;;;;24.17;36.90;102076.13;4963932;28;98225;-72
2021/09/06 08:59:23;;;;;;;;;;;;;;;24.40;36.61;102082.63;4965693;28;97869;-73
2021/09/06 09:01:51;;;;;;;;;;;;;;;24.62;36.50;102075.50;4966915;28;97724;-72
2021/09/06 09:04:18;;;;;;;;;;;;;;;24.41;36.80;102084.34;4969340;28;97683;-73
2021/09/06 09:06:47;;;;;;;;;;;;;;;24.84;36.26;102084.75;4974660;28;96901;-73
2021/09/06 09:09:22;;;;;;;;;;;;;;;24.75;36.32;102080.00;4970010;28;97617;-73
2021/09/06 09:12:01;;;;;;;;;;;;;;;24.91;36.32;102086.03;4972787;28;99236;-72
2021/09/06 09:14:27;;;;;;;;;;;;;;;24.93;36.09;102084.09;4974289;28;98821;-74
2021/09/06 09:16:55;;;;;;;;;;;;;;;25.30;35.71;102071.34;4968829;28;97304;-73
2021/09/06 09:19:23;;;;;;;;;;;;;;;25.35;35.58;102077.25;4972068;28;97119;-72
2021/09/06 09:21:52;;;;;;;;;;;;;;;25.17;35.84;102078.66;4972610;28;101685;-73
2021/09/06 09:24:19;;;;;;;;;;;;;;;24.91;36.53;102086.91;4973986;28;99121;-73
2021/09/06 09:26:53;;;;;;;;;;;;;;;24.95;36.53;102085.69;4973344;28;97646;-72
2021/09/06 09:29:21;;;;;;;;;;;;;;;24.86;36.60;102082.78;4974537;28;96950;-72
2021/09/06 09:31:47;;;;;;;;;;;;;;;24.99;35.93;102084.50;4970154;28;98972;-74
2021/09/06 09:34:15;;;;;;;;;;;;;;;25.24;36.20;102085.34;4973288;28;98835;-73
2021/09/06 09:36:42;;;;;;;;;;;;;;;25.53;35.49;102072.28;4965402;28;98829;-73
2021/09/06 09:39:09;;;;;;;;;;;;;;;25.45;35.35;102075.59;4969391;28;97359;-74
2021/09/06 09:41:35;;;;;;;;;;;;;;;25.51;35.96;102068.84;4962132;28;98868;-72
2021/09/06 09:44:08;;;;;;;;;;;;;;;25.02;36.21;102076.16;4971417;28;100618;-73
2021/09/06 09:46:37;;;;;;;;;;;;;;;25.36;35.50;102066.31;4965342;28;97390;-73
2021/09/06 09:49:10;;;;;;;;;;;;;;;25.32;35.82;102066.69;4969560;28;96934;-73
2021/09/06 09:51:36;;;;;;;;;;;;;;;25.43;35.53;102061.31;4962361;28;99150;-73
2021/09/06 09:54:03;;;;;;;;;;;;;;;25.25;35.73;102057.31;4971656;28;99085;-75
2021/09/06 09:56:30;;;;;;;;;;;;;;;25.17;35.93;102054.31;4971899;28;98002;-73
2021/09/06 09:58:56;;;;;;;;;;;;;;;24.79;36.77;102060.75;4968517;28;97120;-72
2021/09/06 10:01:25;;;;;;;;;;;;;;;24.74;37.26;102056.69;4967991;28;98687;-74
2021/09/06 10:03:52;;;;;;;;;;;;;;;24.29;38.30;102048.25;4967942;28;99141;-74
2021/09/06 10:06:18;;;;;;;;;;;;;;;24.93;36.88;102057.94;4970619;28;96880;-72
2021/09/06 10:08:45;;;;;;;;;;;;;;;25.24;36.65;102055.59;4970525;28;97056;-73
2021/09/06 10:11:12;;;;;;;;;;;;;;;25.49;35.89;102050.00;4965775;28;98966;-74
2021/09/06 10:13:40;;;;;;;;;;;;;;;25.47;35.77;102051.13;4968501;28;98773;-73
2021/09/06 10:16:06;;;;;;;;;;;;;;;25.35;35.84;102042.09;4968436;28;97716;-73
2021/09/06 10:18:38;;;;;;;;;;;;;;;24.54;37.66;102047.34;4972650;28;97495;-72
2021/09/06 10:21:11;;;;;;;;;;;;;;;24.58;37.51;102052.41;4968106;28;99225;-75
2021/09/06 10:23:43;;;;;;;;;;;;;;;24.94;37.25;102048.81;4971358;28;98833;-73
2021/09/06 10:26:10;;;;;;;;;;;;;;;25.05;37.00;102044.44;4968889;28;97376;-72
2021/09/06 10:28:36;;;;;;;;;;;;;;;25.62;36.27;102047.22;4969902;28;98657;-73
2021/09/06 10:31:03;;;;;;;;;;;;;;;25.74;35.38;102044.41;4967053;28;98801;-73
2021/09/06 10:33:31;;;;;;;;;;;;;;;25.56;35.62;102045.84;4968460;28;99019;-73
2021/09/06 10:36:09;;;;;;;;;;;;;;;25.75;35.56;102046.16;4969562;28;97923;-73
2021/09/06 10:38:38;;;;;;;;;;;;;;;24.87;36.97;102041.28;4961618;28;97736;-74
2021/09/06 10:41:08;;;;;;;;;;;;;;;24.40;37.66;102036.69;4964067;28;99366;-72
2021/09/06 10:43:42;;;;;;;;;;;;;;;25.05;36.81;102029.09;4969939;28;99462;-73
2021/09/06 10:46:08;;;;;;;;;;;;;;;23.69;39.19;102031.91;4967996;28;97316;-73
2021/09/06 10:48:35;;;;;;;;;;;;;;;24.65;37.56;102033.91;4971795;28;97247;-73
2021/09/06 10:51:02;;;;;;;;;;;;;;;24.37;38.28;102031.50;4969608;28;98902;-74
2021/09/06 10:53:30;;;;;;;;;;;;;;;24.72;37.74;102037.88;4975564;28;98853;-75
2021/09/06 10:55:57;;;;;;;;;;;;;;;25.29;36.74;102032.59;4974011;28;98472;-73
2021/09/06 10:58:24;;;;;;;;;;;;;;;25.82;35.74;102032.13;4977781;28;96966;-73
2021/09/06 11:00:52;;;;;;;;;;;;;;;25.59;36.05;102028.53;4974520;28;98965;-74
2021/09/06 11:03:18;;;;;;;;;;;;;;;25.90;35.92;102029.69;4968893;28;102605;-74
2021/09/06 11:05:50;;;;;;;;;;;;;;;26.20;34.96;102024.50;4969757;28;96844;-74
2021/09/06 11:08:23;;;;;;;;;;;;;;;26.24;34.94;102019.69;4974264;28;97223;-74
2021/09/06 11:10:51;;;;;;;;;;;;;;;26.53;34.76;102027.19;4973198;28;98912;-74
2021/09/06 11:13:17;;;;;;;;;;;;;;;26.26;34.68;102017.75;4966299;28;98968;-75
2021/09/06 11:15:43;;;;;;;;;;;;;;;26.22;35.00;102016.25;4971546;28;96867;-76
2021/09/06 11:18:10;;;;;;;;;;;;;;;26.30;34.85;102013.81;4970008;28;96959;-74
2021/09/06 11:20:38;;;;;;;;;;;;;;;26.45;34.70;102013.41;4971146;28;98924;-74
2021/09/06 11:23:05;;;;;;;;;;;;;;;26.54;34.27;102018.06;4968328;28;99106;-74
2021/09/06 11:25:32;;;;;;;;;;;;;;;26.54;34.27;102018.06;4969423;28;97018;-75
2021/09/06 11:28:08;;;;;;;;;;;;;;;26.56;34.49;102024.22;4971826;28;96914;-76
2021/09/06 11:30:39;;;;;;;;;;;;;;;26.48;34.54;102023.13;4972094;28;98973;-75
2021/09/06 11:33:06;;;;;;;;;;;;;;;26.46;34.67;102012.41;4971144;28;98847;-74
2021/09/06 11:35:33;;;;;;;;;;;;;;;26.38;35.17;102009.50;4968999;28;97254;-72
2021/09/06 11:37:59;;;;;;;;;;;;;;;26.69;34.56;102007.81;4974955;28;96966;-74
2021/09/06 11:40:29;;;;;;;;;;;;;;;26.73;34.99;102000.25;4967520;28;99141;-74
2021/09/06 11:42:55;;;;;;;;;;;;;;;26.86;34.37;102012.66;4961362;28;99420;-72
2021/09/06 11:45:24;;;;;;;;;;;;;;;26.90;34.46;102013.31;4966812;28;96961;-75
2021/09/06 11:47:50;;;;;;;;;;;;;;;26.91;33.98;102015.03;4972897;28;97015;-74
2021/09/06 11:50:20;;;;;;;;;;;;;;;26.93;33.60;102013.03;4973193;28;99553;-73
2021/09/06 11:52:46;;;;;;;;;;;;;;;27.06;33.21;102008.28;4967875;28;99254;-74
2021/09/06 11:55:14;;;;;;;;;;;;;;;27.15;33.42;102012.09;4972392;28;97389;-74
2021/09/06 11:57:40;;;;;;;;;;;;;;;27.22;33.22;102016.00;4972692;28;96931;-73
2021/09/06 12:00:07;;;;;;;;;;;;;;;27.38;32.83;102009.09;4970334;28;99402;-72
2021/09/06 12:02:35;;;;;;;;;;;;;;;26.77;33.70;102012.59;4968038;28;98819;-74
2021/09/06 12:05:05;;;;;;;;;;;;;;;26.65;32.87;102019.03;4969167;28;96953;-72
2021/09/06 12:07:34;;;;;;;;;;;;;;;26.46;33.21;102020.53;4967908;28;97944;-73
2021/09/06 12:10:00;;;;;;;;;;;;;;;26.97;33.11;102014.53;4969565;28;99248;-74
2021/09/06 12:12:27;;;;;;;;;;;;;;;27.11;32.90;102021.50;4964841;28;99158;-75
2021/09/06 12:14:54;;;;;;;;;;;;;;;27.18;31.51;102019.94;4966241;28;96985;-76
2021/09/06 12:17:21;;;;;;;;;;;;;;;27.23;32.26;102017.72;4967808;28;97092;-74
2021/09/06 12:19:50;;;;;;;;;;;;;;;27.11;32.44;102016.91;4965988;28;100699;-73
2021/09/06 12:22:17;;;;;;;;;;;;;;;27.01;32.77;102009.69;4966198;28;98932;-74
2021/09/06 12:24:44;;;;;;;;;;;;;;;26.64;33.86;102012.75;4970031;28;98783;-73
2021/09/06 12:27:11;;;;;;;;;;;;;;;26.84;33.79;102013.81;4969427;28;99086;-73
2021/09/06 12:29:38;;;;;;;;;;;;;;;26.82;33.53;102007.63;4966233;28;98998;-72
2021/09/06 12:32:05;;;;;;;;;;;;;;;26.93;33.41;102003.06;4967912;28;98853;-73
2021/09/06 12:34:32;;;;;;;;;;;;;;;26.92;34.08;102017.59;4966996;28;96861;-73